createdAt,value
2022-09-23T00:01:07.494Z,8.43
2022-09-23T00:03:35.178Z,8.37
2022-09-23T00:06:05.004Z,8.43
2022-09-23T00:08:31.699Z,11.10
2022-09-23T00:11:09.117Z,9.90
2022-09-23T00:13:37.114Z,7.27
2022-09-23T00:16:05.903Z,7.10
2022-09-23T00:18:33.087Z,8.57
2022-09-23T00:21:05.314Z,6.70
2022-09-23T00:23:32.446Z,8.87
2022-09-23T00:26:01.181Z,6.87
2022-09-23T00:28:28.046Z,7.17
2022-09-23T00:30:54.811Z,8.13
2022-09-23T00:33:21.634Z,8.47
2022-09-23T00:35:49.728Z,7.57
2022-09-23T00:38:17.107Z,6.73
2022-09-23T00:40:46.118Z,7.07
2022-09-23T00:43:17.543Z,8.20
2022-09-23T00:45:50.884Z,7.03
2022-09-23T00:48:21.847Z,8.40
2022-09-23T00:50:53.416Z,7.37
2022-09-23T00:53:23.929Z,9.00
2022-09-23T00:55:58.234Z,10.93
2022-09-23T00:58:30.920Z,7.17
2022-09-23T01:01:00.499Z,5.60
2022-09-23T01:03:28.053Z,5.37
2022-09-23T01:05:55.574Z,7.20
2022-09-23T01:08:23.847Z,6.50
2022-09-23T01:11:10.115Z,10.73
2022-09-23T01:13:42.966Z,5.83
2022-09-23T01:16:37.542Z,17.57
2022-09-23T01:19:04.103Z,6.57
2022-09-23T01:21:54.719Z,6.00
2022-09-23T01:25:00.049Z,5.60
2022-09-23T01:27:48.438Z,9.40
2022-09-23T01:30:31.880Z,7.83
2022-09-23T01:33:09.298Z,9.53
2022-09-23T01:36:04.584Z,8.17
2022-09-23T01:38:40.057Z,9.17
2022-09-23T01:41:37.772Z,9.37
2022-09-23T01:44:12.024Z,8.00
2022-09-23T01:46:48.237Z,8.53
2022-09-23T01:49:25.340Z,6.47
2022-09-23T01:52:08.051Z,7.43
2022-09-23T01:54:43.677Z,8.97
2022-09-23T01:57:18.199Z,11.70
2022-09-23T01:59:55.866Z,9.03
2022-09-23T02:02:35.382Z,5.83
2022-09-23T02:05:14.764Z,7.13
2022-09-23T02:07:50.887Z,7.60
2022-09-23T02:10:27.095Z,5.87
2022-09-23T02:13:00.448Z,5.67
2022-09-23T02:15:34.946Z,5.93
2022-09-23T02:18:12.952Z,6.40
2022-09-23T02:20:40.125Z,9.33
2022-09-23T02:23:21.128Z,5.57
2022-09-23T02:26:08.721Z,5.83
2022-09-23T02:28:46.690Z,6.63
2022-09-23T02:31:21.526Z,5.47
2022-09-23T02:34:15.556Z,5.73
2022-09-23T02:36:49.517Z,5.57
2022-09-23T02:39:18.474Z,5.93
2022-09-23T02:42:14.783Z,5.67
2022-09-23T02:44:41.423Z,6.80
2022-09-23T02:47:08.266Z,5.47
2022-09-23T02:49:36.439Z,6.30
2022-09-23T02:52:05.705Z,9.77
2022-09-23T02:54:34.020Z,6.23
2022-09-23T02:57:03.651Z,7.23
2022-09-23T02:59:30.779Z,9.67
2022-09-23T03:02:04.457Z,7.70
2022-09-23T03:04:58.412Z,5.70
2022-09-23T03:07:54.041Z,6.47
2022-09-23T03:10:41.194Z,7.73
2022-09-23T03:13:19.404Z,7.30
2022-09-23T03:15:51.362Z,6.50
2022-09-23T03:18:31.598Z,6.60
2022-09-23T03:21:03.611Z,10.67
2022-09-23T03:23:35.673Z,12.37
2022-09-23T03:26:12.186Z,9.37
2022-09-23T03:28:43.145Z,7.53
2022-09-23T03:31:14.589Z,9.63
2022-09-23T03:33:47.031Z,11.03
2022-09-23T03:36:35.931Z,10.33
2022-09-23T03:39:21.877Z,10.77
2022-09-23T03:41:52.424Z,8.27
2022-09-23T03:44:21.268Z,8.23
2022-09-23T03:46:50.670Z,7.37
2022-09-23T03:49:27.232Z,6.43
2022-09-23T03:51:55.335Z,5.57
2022-09-23T03:54:22.235Z,5.87
2022-09-23T03:56:48.953Z,5.80
2022-09-23T03:59:16.092Z,5.27
2022-09-23T04:01:43.129Z,5.67
2022-09-23T04:04:10.354Z,4.87
2022-09-23T04:06:37.056Z,5.20
2022-09-23T04:09:03.780Z,5.57
2022-09-23T04:11:30.586Z,5.10
2022-09-23T04:13:57.255Z,8.83
2022-09-23T04:16:24.538Z,5.37
2022-09-23T04:18:51.374Z,4.80
2022-09-23T04:21:19.057Z,5.40
2022-09-23T04:23:48.628Z,5.27
2022-09-23T04:26:15.330Z,7.07
2022-09-23T04:28:41.992Z,6.17
2022-09-23T04:31:09.858Z,5.23
2022-09-23T04:33:37.515Z,4.97
2022-09-23T04:36:04.332Z,10.30
2022-09-23T04:38:31.100Z,6.00
2022-09-23T04:40:57.670Z,6.30
2022-09-23T04:43:24.316Z,7.57
2022-09-23T04:46:02.171Z,5.40
2022-09-23T04:48:28.913Z,5.53
2022-09-23T04:51:02.174Z,7.10
2022-09-23T04:53:29.252Z,6.93
2022-09-23T04:56:04.208Z,7.70
2022-09-23T04:58:31.082Z,10.53
2022-09-23T05:01:00.589Z,6.40
2022-09-23T05:03:30.127Z,6.90
2022-09-23T05:05:59.856Z,7.57
2022-09-23T05:08:26.423Z,7.13
2022-09-23T05:10:58.056Z,7.90
2022-09-23T05:13:24.756Z,4.80
2022-09-23T05:16:01.170Z,7.37
2022-09-23T05:18:32.201Z,6.33
2022-09-23T05:20:59.124Z,4.93
2022-09-23T05:23:27.112Z,4.93
2022-09-23T05:26:05.901Z,4.60
2022-09-23T05:28:33.261Z,5.77
2022-09-23T05:31:04.207Z,8.83
2022-09-23T05:33:32.105Z,4.93
2022-09-23T05:35:58.956Z,6.37
2022-09-23T05:38:25.812Z,6.73
2022-09-23T05:41:00.026Z,6.37
2022-09-23T05:43:27.035Z,6.67
2022-09-23T05:46:12.029Z,8.30
2022-09-23T05:48:39.778Z,5.20
2022-09-23T05:51:13.244Z,6.73
2022-09-23T05:53:41.574Z,10.47
2022-09-23T05:56:08.236Z,11.03
2022-09-23T05:58:35.525Z,5.30
2022-09-23T06:01:20.964Z,5.83
2022-09-23T06:03:49.020Z,8.30
2022-09-23T06:06:20.729Z,4.87
2022-09-23T06:08:47.776Z,7.03
2022-09-23T06:11:14.931Z,10.87
2022-09-23T06:13:41.788Z,8.30
2022-09-23T06:16:13.726Z,8.20
2022-09-23T06:18:45.213Z,6.80
2022-09-23T06:21:16.707Z,11.10
2022-09-23T06:23:44.328Z,7.63
2022-09-23T06:26:13.392Z,10.63
2022-09-23T06:28:41.591Z,9.67
2022-09-23T06:31:13.877Z,6.33
2022-09-23T06:33:42.553Z,6.40
2022-09-23T06:36:10.247Z,7.97
2022-09-23T06:38:41.379Z,5.57
2022-09-23T06:41:08.197Z,8.60
2022-09-23T06:43:34.923Z,6.33
2022-09-23T06:46:06.158Z,8.13
2022-09-23T06:48:36.157Z,12.00
2022-09-23T06:51:07.081Z,6.90
2022-09-23T06:53:34.127Z,7.60
2022-09-23T06:56:11.359Z,7.20
2022-09-23T06:58:39.966Z,5.90
2022-09-23T07:01:12.787Z,10.07
2022-09-23T07:03:39.681Z,7.27
2022-09-23T07:06:07.993Z,12.70
2022-09-23T07:08:35.996Z,9.07
2022-09-23T07:11:05.704Z,5.93
2022-09-23T07:13:33.460Z,10.47
2022-09-23T07:16:01.984Z,9.37
2022-09-23T07:18:36.792Z,7.77
2022-09-23T07:21:16.022Z,6.57
2022-09-23T07:23:53.495Z,7.30
2022-09-23T07:26:20.796Z,6.47
2022-09-23T07:28:47.651Z,7.23
2022-09-23T07:31:24.918Z,10.47
2022-09-23T07:33:57.892Z,6.80
2022-09-23T07:36:27.878Z,7.23
2022-09-23T07:39:00.496Z,7.10
2022-09-23T07:41:28.927Z,8.67
2022-09-23T07:43:58.973Z,9.30
2022-09-23T07:46:27.661Z,6.87
2022-09-23T07:48:54.648Z,7.23
2022-09-23T07:51:41.239Z,12.00
2022-09-23T07:54:11.337Z,7.30
2022-09-23T07:56:38.213Z,5.17
2022-09-23T07:59:08.565Z,6.33
2022-09-23T08:01:41.459Z,4.73
2022-09-23T08:04:14.808Z,5.00
2022-09-23T08:06:43.448Z,5.00
2022-09-23T08:09:10.956Z,6.07
2022-09-23T08:11:41.784Z,4.87
2022-09-23T08:14:09.957Z,4.50
2022-09-23T08:16:37.146Z,5.10
2022-09-23T08:21:32.023Z,4.83
2022-09-23T08:23:58.761Z,4.73
2022-09-23T08:26:25.854Z,4.57
2022-09-23T08:28:56.820Z,3.97
2022-09-23T08:31:24.023Z,4.70
2022-09-23T08:33:58.323Z,4.90
2022-09-23T08:36:26.163Z,8.80
2022-09-23T08:38:53.291Z,4.07
2022-09-23T08:41:58.938Z,8.10
2022-09-23T08:44:27.643Z,7.13
2022-09-23T08:47:00.026Z,5.77
2022-09-23T08:49:51.822Z,7.77
2022-09-23T08:52:28.156Z,4.53
2022-09-23T08:54:55.675Z,5.90
2022-09-23T08:58:23.317Z,6.87
2022-09-23T09:00:42.264Z,5.00
2022-09-23T09:03:23.583Z,4.40
2022-09-23T09:05:54.471Z,6.80
2022-09-23T09:08:31.270Z,4.20
2022-09-23T09:10:58.388Z,9.70
2022-09-23T09:13:34.584Z,3.17
2022-09-23T09:16:41.830Z,3.17
2022-09-23T09:19:19.030Z,4.00
2022-09-23T09:21:50.711Z,4.03
2022-09-23T09:24:21.816Z,3.07
2022-09-23T09:26:48.656Z,5.77
2022-09-23T09:29:41.623Z,2.53
2022-09-23T09:32:48.395Z,2.40
2022-09-23T09:35:38.855Z,2.50
2022-09-23T09:38:08.299Z,2.80
2022-09-23T09:40:35.247Z,2.40
2022-09-23T09:43:05.469Z,2.60
2022-09-23T09:46:06.644Z,3.50
2022-09-23T09:48:53.704Z,5.57
2022-09-23T09:51:23.018Z,4.40
2022-09-23T09:53:52.829Z,2.83
2022-09-23T09:56:32.782Z,3.07
2022-09-23T09:59:08.198Z,2.83
2022-09-23T10:01:35.423Z,3.33
2022-09-23T10:04:05.415Z,3.47
2022-09-23T10:06:35.320Z,3.00
2022-09-23T10:09:01.972Z,2.70
2022-09-23T10:11:29.748Z,2.53
2022-09-23T10:14:19.092Z,3.30
2022-09-23T10:16:48.795Z,2.57
2022-09-23T10:19:27.187Z,2.40
2022-09-23T10:21:56.985Z,2.83
2022-09-23T10:24:32.586Z,2.10
2022-09-23T10:27:02.070Z,2.13
2022-09-23T10:29:42.465Z,4.10
2022-09-23T10:32:38.003Z,1.87
2022-09-23T10:35:08.909Z,1.80
2022-09-23T10:37:56.345Z,2.07
2022-09-23T10:40:53.407Z,2.73
2022-09-23T10:43:44.966Z,1.50
2022-09-23T10:46:42.130Z,2.13
2022-09-23T10:49:27.566Z,1.73
2022-09-23T10:52:22.196Z,1.50
2022-09-23T10:55:14.348Z,1.60
2022-09-23T10:58:04.256Z,1.53
2022-09-23T11:00:51.775Z,1.60
2022-09-23T11:03:27.323Z,1.60
2022-09-23T11:06:37.155Z,1.27
2022-09-23T11:09:22.307Z,2.70
2022-09-23T11:11:59.848Z,1.50
2022-09-23T11:14:40.775Z,1.57
2022-09-23T11:17:14.618Z,2.37
2022-09-23T11:20:13.215Z,1.60
2022-09-23T11:23:10.871Z,1.50
2022-09-23T11:26:07.821Z,2.27
2022-09-23T11:29:02.567Z,1.40
2022-09-23T11:31:37.288Z,1.50
2022-09-23T11:34:30.938Z,1.50
2022-09-23T11:37:12.788Z,1.70
2022-09-23T11:39:46.810Z,1.87
2022-09-23T11:42:25.057Z,1.70
2022-09-23T11:45:18.913Z,1.40
2022-09-23T11:47:51.979Z,1.73
2022-09-23T11:50:41.835Z,2.03
2022-09-23T11:53:37.674Z,1.40
2022-09-23T11:56:35.004Z,1.30
2022-09-23T11:59:21.237Z,2.57
2022-09-23T12:02:08.049Z,2.73
2022-09-23T12:04:54.781Z,1.50
2022-09-23T12:07:33.089Z,1.83
2022-09-23T12:10:06.958Z,1.80
2022-09-23T12:12:48.810Z,2.23
2022-09-23T12:15:21.728Z,1.90
2022-09-23T12:18:02.890Z,1.57
2022-09-23T12:20:42.518Z,1.70
2022-09-23T12:23:34.948Z,1.70
2022-09-23T12:26:09.264Z,1.90
2022-09-23T12:28:45.861Z,1.30
2022-09-23T12:31:33.055Z,2.47
2022-09-23T12:34:08.979Z,1.50
2022-09-23T12:36:36.275Z,1.50
2022-09-23T12:39:17.134Z,1.13
2022-09-23T12:41:56.905Z,1.50
2022-09-23T12:44:36.848Z,1.60
2022-09-23T12:47:21.013Z,4.30
2022-09-23T12:49:48.465Z,1.50
2022-09-23T12:52:17.971Z,1.30
2022-09-23T12:54:49.933Z,1.40
2022-09-23T12:57:34.762Z,1.53
2022-09-23T13:00:11.169Z,1.37
2022-09-23T13:02:39.475Z,1.30
2022-09-23T13:05:35.354Z,1.43
2022-09-23T13:08:10.343Z,1.37
2022-09-23T13:10:49.449Z,1.47
2022-09-23T13:13:24.243Z,1.77
2022-09-23T13:15:53.990Z,2.53
2022-09-23T13:18:20.588Z,1.50
2022-09-23T13:20:52.284Z,1.30
2022-09-23T13:23:28.715Z,2.07
2022-09-23T13:26:02.269Z,1.73
2022-09-23T13:28:37.492Z,1.30
2022-09-23T13:31:07.091Z,1.33
2022-09-23T13:33:47.240Z,1.63
2022-09-23T13:36:16.264Z,1.53
2022-09-23T13:38:43.533Z,3.63
2022-09-23T13:41:12.143Z,2.03
2022-09-23T13:43:43.384Z,1.40
2022-09-23T13:46:18.418Z,1.13
2022-09-23T13:48:47.459Z,1.87
2022-09-23T13:51:35.437Z,5.63
2022-09-23T13:54:05.127Z,1.67
2022-09-23T13:56:33.690Z,1.60
2022-09-23T13:59:31.073Z,4.03
2022-09-23T14:02:15.672Z,2.10
2022-09-23T14:04:43.075Z,1.50
2022-09-23T14:07:13.929Z,1.57
2022-09-23T14:09:48.949Z,1.93
2022-09-23T14:12:21.939Z,1.50
2022-09-23T14:14:51.650Z,1.53
2022-09-23T14:17:20.783Z,2.67
2022-09-23T14:19:48.514Z,1.40
2022-09-23T14:22:29.535Z,1.53
2022-09-23T14:24:57.347Z,2.40
2022-09-23T14:27:30.601Z,2.07
2022-09-23T14:29:58.706Z,1.63
2022-09-23T14:32:28.751Z,3.80
2022-09-23T14:35:03.474Z,1.60
2022-09-23T14:38:00.603Z,1.27
2022-09-23T14:40:34.391Z,3.83
2022-09-23T14:43:17.557Z,1.60
2022-09-23T14:45:50.578Z,1.70
2022-09-23T14:48:22.515Z,1.90
2022-09-23T14:51:01.098Z,1.50
2022-09-23T14:53:54.137Z,1.50
2022-09-23T14:56:22.853Z,1.50
2022-09-23T14:59:00.560Z,3.20
2022-09-23T15:01:37.262Z,1.23
2022-09-23T15:04:21.902Z,2.37
2022-09-23T15:06:55.773Z,1.40
2022-09-23T15:09:28.742Z,1.87
2022-09-23T15:12:20.931Z,5.60
2022-09-23T15:14:56.542Z,2.97
2022-09-23T15:17:23.095Z,2.07
2022-09-23T15:20:33.767Z,1.57
2022-09-23T15:23:01.168Z,1.70
2022-09-23T15:25:35.951Z,1.97
2022-09-23T15:28:08.659Z,1.60
2022-09-23T15:30:36.566Z,2.40
2022-09-23T15:33:03.738Z,1.77
2022-09-23T15:35:32.176Z,1.60
2022-09-23T15:38:01.648Z,1.83
2022-09-23T15:40:31.546Z,1.80
2022-09-23T15:43:01.420Z,1.90
2022-09-23T15:45:33.656Z,2.63
2022-09-23T15:48:07.281Z,1.87
2022-09-23T15:50:37.999Z,1.90
2022-09-23T15:53:05.932Z,1.57
2022-09-23T15:55:33.696Z,2.00
2022-09-23T15:58:01.126Z,2.30
2022-09-23T16:00:27.857Z,2.57
2022-09-23T16:02:54.646Z,1.53
2022-09-23T16:05:39.204Z,1.73
2022-09-23T16:08:09.312Z,4.03
2022-09-23T16:10:37.432Z,1.60
2022-09-23T16:13:06.704Z,2.60
2022-09-23T16:15:34.079Z,1.73
2022-09-23T16:18:01.312Z,1.80
2022-09-23T16:20:29.959Z,8.70
2022-09-23T16:23:03.132Z,1.80
2022-09-23T16:25:31.815Z,5.00
2022-09-23T16:27:58.728Z,3.00
2022-09-23T16:30:29.686Z,1.93
2022-09-23T16:32:56.919Z,1.73
2022-09-23T16:35:25.847Z,2.83
2022-09-23T16:37:52.765Z,2.00
2022-09-23T16:40:22.525Z,1.63
2022-09-23T16:42:52.074Z,3.13
2022-09-23T16:45:22.235Z,2.60
2022-09-23T16:47:51.055Z,3.77
2022-09-23T16:50:20.181Z,1.93
2022-09-23T16:52:46.915Z,2.53
2022-09-23T16:55:17.534Z,1.90
2022-09-23T16:57:44.165Z,1.87
2022-09-23T17:00:33.874Z,3.60
2022-09-23T17:03:20.256Z,3.83
2022-09-23T17:05:48.945Z,2.50
2022-09-23T17:08:17.055Z,3.10
2022-09-23T17:10:45.633Z,2.40
2022-09-23T17:13:16.638Z,2.73
2022-09-23T17:15:44.058Z,2.17
2022-09-23T17:18:10.753Z,3.23
2022-09-23T17:20:38.668Z,3.00
2022-09-23T17:23:06.003Z,2.83
2022-09-23T17:25:34.012Z,6.30
2022-09-23T17:28:00.942Z,9.80
2022-09-23T17:30:29.445Z,5.20
2022-09-23T17:32:56.028Z,4.03
2022-09-23T17:35:22.802Z,4.93
2022-09-23T17:37:50.028Z,3.93
2022-09-23T17:40:16.819Z,5.33
2022-09-23T17:42:43.520Z,9.10
2022-09-23T17:45:12.832Z,7.87
2022-09-23T17:47:41.659Z,4.73
2022-09-23T17:50:08.886Z,4.57
2022-09-23T17:52:35.486Z,5.30
2022-09-23T17:55:02.224Z,5.50
2022-09-23T17:57:28.974Z,6.50
2022-09-23T17:59:56.204Z,6.53
2022-09-23T18:02:23.173Z,8.77
2022-09-23T18:04:49.837Z,12.50
2022-09-23T18:07:16.706Z,7.07
2022-09-23T18:09:43.522Z,6.53
2022-09-23T18:12:10.245Z,7.77
2022-09-23T18:14:36.846Z,7.47
2022-09-23T18:17:03.573Z,9.97
2022-09-23T18:19:30.227Z,11.00
2022-09-23T18:21:57.355Z,6.97
2022-09-23T18:24:33.350Z,7.60
2022-09-23T18:27:01.283Z,8.30
2022-09-23T18:29:28.733Z,10.50
2022-09-23T18:31:55.700Z,8.17
2022-09-23T18:34:22.478Z,8.37
2022-09-23T18:36:49.183Z,8.93
2022-09-23T18:39:15.992Z,10.63
2022-09-23T18:41:42.931Z,11.33
2022-09-23T18:44:10.072Z,10.50
2022-09-23T18:46:37.054Z,9.63
2022-09-23T18:49:22.677Z,8.40
2022-09-23T18:51:57.339Z,6.77
2022-09-23T18:54:27.583Z,9.90
2022-09-23T18:56:55.357Z,7.90
2022-09-23T18:59:25.193Z,8.00
2022-09-23T19:01:54.934Z,7.83
2022-09-23T19:04:23.379Z,10.90
2022-09-23T19:06:50.111Z,10.07
2022-09-23T19:09:17.929Z,7.53
2022-09-23T19:11:44.921Z,12.07
2022-09-23T19:14:12.274Z,9.07
2022-09-23T19:16:40.841Z,7.63
2022-09-23T19:19:08.457Z,13.73
2022-09-23T19:21:35.827Z,9.43
2022-09-23T19:24:06.020Z,15.17
2022-09-23T19:26:38.447Z,8.30
2022-09-23T19:29:09.776Z,10.57
2022-09-23T19:31:40.504Z,11.23
2022-09-23T19:34:13.128Z,9.03
2022-09-23T19:36:42.230Z,10.77
2022-09-23T19:39:14.815Z,12.53
2022-09-23T19:41:41.451Z,10.97
2022-09-23T19:44:08.138Z,10.27
2022-09-23T19:46:41.836Z,10.97
2022-09-23T19:49:08.613Z,8.60
2022-09-23T19:51:35.709Z,10.63
2022-09-23T19:54:04.186Z,9.50
2022-09-23T19:56:31.933Z,13.37
2022-09-23T19:58:59.427Z,12.13
2022-09-23T20:01:27.691Z,10.17
2022-09-23T20:03:54.402Z,9.93
2022-09-23T20:06:21.766Z,9.17
2022-09-23T20:08:49.362Z,11.37
2022-09-23T20:11:26.230Z,10.50
2022-09-23T20:14:01.007Z,15.83
2022-09-23T20:16:32.007Z,9.63
2022-09-23T20:19:00.139Z,11.90
2022-09-23T20:21:28.293Z,11.93
2022-09-23T20:23:55.362Z,9.03
2022-09-23T20:26:40.734Z,13.60
2022-09-23T20:29:08.853Z,14.63
2022-09-23T20:31:35.676Z,12.13
2022-09-23T20:34:05.443Z,10.50
2022-09-23T20:36:33.213Z,12.47
2022-09-23T20:39:01.917Z,9.20
2022-09-23T20:41:31.171Z,10.13
2022-09-23T20:44:02.283Z,12.57
2022-09-23T20:46:29.981Z,11.57
2022-09-23T20:48:56.990Z,10.20
2022-09-23T20:51:24.750Z,12.80
2022-09-23T20:53:52.813Z,8.23
2022-09-23T20:56:20.938Z,8.27
2022-09-23T20:58:48.493Z,10.70
2022-09-23T21:01:15.719Z,14.47
2022-09-23T21:03:45.052Z,14.17
2022-09-23T21:06:14.137Z,8.03
2022-09-23T21:08:42.388Z,7.77
2022-09-23T21:11:15.092Z,9.57
2022-09-23T21:13:47.006Z,9.20
2022-09-23T21:16:18.046Z,7.47
2022-09-23T21:18:46.753Z,9.73
2022-09-23T21:21:19.339Z,10.27
2022-09-23T21:23:46.622Z,10.93
2022-09-23T21:26:17.716Z,8.47
2022-09-23T21:28:46.300Z,8.77
2022-09-23T21:31:25.852Z,8.77
2022-09-23T21:33:53.774Z,8.30
2022-09-23T21:36:20.517Z,8.00
2022-09-23T21:38:47.421Z,8.17
2022-09-23T21:41:14.095Z,9.70
2022-09-23T21:43:40.900Z,8.97
2022-09-23T21:46:10.165Z,7.23
2022-09-23T21:48:41.025Z,7.13
2022-09-23T21:51:28.416Z,8.10
2022-09-23T21:53:57.133Z,8.87
2022-09-23T21:56:33.009Z,6.37
2022-09-23T21:58:59.895Z,8.77
2022-09-23T22:01:33.505Z,10.10
2022-09-23T22:04:08.215Z,6.40
2022-09-23T22:06:38.009Z,10.10
2022-09-23T22:09:10.354Z,7.07
2022-09-23T22:11:57.515Z,7.17
2022-09-23T22:14:25.533Z,8.17
2022-09-23T22:16:57.385Z,6.27
2022-09-23T22:19:26.586Z,8.90
2022-09-23T22:21:53.890Z,6.77
2022-09-23T22:24:20.491Z,5.97
2022-09-23T22:26:47.305Z,6.03
2022-09-23T22:29:54.290Z,5.40
2022-09-23T22:32:40.366Z,6.47
2022-09-23T22:35:25.225Z,7.77
2022-09-23T22:37:51.812Z,7.97
2022-09-23T22:40:18.560Z,6.10
2022-09-23T22:42:45.792Z,7.60
2022-09-23T22:45:13.673Z,6.53
2022-09-23T22:47:44.027Z,7.13
2022-09-23T22:50:11.274Z,6.83
2022-09-23T22:52:37.992Z,6.43
2022-09-23T22:55:07.803Z,6.37
2022-09-23T22:57:34.564Z,6.00
2022-09-23T23:00:01.335Z,5.53
2022-09-23T23:02:28.002Z,6.10
2022-09-23T23:04:56.055Z,5.73
2022-09-23T23:07:22.623Z,5.63
2022-09-23T23:09:50.383Z,5.80
2022-09-23T23:12:18.832Z,8.73
2022-09-23T23:14:46.264Z,8.77
2022-09-23T23:17:12.905Z,7.43
2022-09-23T23:19:39.641Z,6.67
2022-09-23T23:22:06.248Z,10.30
2022-09-23T23:24:32.842Z,7.37
2022-09-23T23:26:59.537Z,7.17
2022-09-23T23:29:26.117Z,6.83
2022-09-23T23:31:52.812Z,6.70
2022-09-23T23:34:20.924Z,6.60
2022-09-23T23:36:53.444Z,8.07
2022-09-23T23:39:24.620Z,9.27
2022-09-23T23:41:53.244Z,9.77
2022-09-23T23:44:19.822Z,6.90
2022-09-23T23:46:46.515Z,6.47
2022-09-23T23:49:13.182Z,8.20
2022-09-23T23:51:41.055Z,7.37
2022-09-23T23:54:07.865Z,6.73
2022-09-23T23:56:34.567Z,8.63
2022-09-23T23:59:04.945Z,6.10
